sensor_id;sensor_type;location;lat;lon;timestamp;P1;durP1;ratioP1;P2;durP2;ratioP2
21955;SDS011;11142;49.930;8.606;2023-12-14T00:01:25;37.63;;;17.17;;
21955;SDS011;11142;49.930;8.606;2023-12-14T00:03:54;39.10;;;17.25;;
21955;SDS011;11142;49.930;8.606;2023-12-14T00:06:22;41.85;;;19.88;;
21955;SDS011;11142;49.930;8.606;2023-12-14T00:08:52;57.08;;;22.27;;
21955;SDS011;11142;49.930;8.606;2023-12-14T00:11:22;41.42;;;19.52;;
21955;SDS011;11142;49.930;8.606;2023-12-14T00:13:50;45.85;;;18.85;;
21955;SDS011;11142;49.930;8.606;2023-12-14T00:16:20;39.03;;;16.80;;
21955;SDS011;11142;49.930;8.606;2023-12-14T00:18:48;36.97;;;16.92;;
21955;SDS011;11142;49.930;8.606;2023-12-14T00:21:16;53.33;;;18.08;;
21955;SDS011;11142;49.930;8.606;2023-12-14T00:23:46;37.90;;;16.80;;
21955;SDS011;11142;49.930;8.606;2023-12-14T00:26:19;81.63;;;20.77;;
21955;SDS011;11142;49.930;8.606;2023-12-14T00:28:50;97.43;;;18.92;;
21955;SDS011;11142;49.930;8.606;2023-12-14T00:31:27;57.67;;;16.27;;
21955;SDS011;11142;49.930;8.606;2023-12-14T00:33:54;84.95;;;16.75;;
21955;SDS011;11142;49.930;8.606;2023-12-14T00:36:27;51.17;;;16.83;;
21955;SDS011;11142;49.930;8.606;2023-12-14T00:38:55;102.95;;;19.77;;
21955;SDS011;11142;49.930;8.606;2023-12-14T00:41:25;120.40;;;18.35;;
21955;SDS011;11142;49.930;8.606;2023-12-14T00:43:53;139.60;;;20.92;;
21955;SDS011;11142;49.930;8.606;2023-12-14T00:46:21;94.57;;;19.55;;
21955;SDS011;11142;49.930;8.606;2023-12-14T00:48:50;89.63;;;17.27;;
21955;SDS011;11142;49.930;8.606;2023-12-14T00:51:18;83.85;;;17.73;;
21955;SDS011;11142;49.930;8.606;2023-12-14T00:53:49;75.28;;;17.50;;
21955;SDS011;11142;49.930;8.606;2023-12-14T00:56:17;101.18;;;19.52;;
21955;SDS011;11142;49.930;8.606;2023-12-14T00:58:48;116.70;;;20.70;;
21955;SDS011;11142;49.930;8.606;2023-12-14T01:01:17;66.18;;;17.35;;
21955;SDS011;11142;49.930;8.606;2023-12-14T01:03:45;63.05;;;17.27;;
21955;SDS011;11142;49.930;8.606;2023-12-14T01:06:16;36.72;;;14.25;;
21955;SDS011;11142;49.930;8.606;2023-12-14T01:08:51;85.50;;;17.77;;
21955;SDS011;11142;49.930;8.606;2023-12-14T01:11:19;74.00;;;18.65;;
21955;SDS011;11142;49.930;8.606;2023-12-14T01:13:50;71.95;;;19.73;;
21955;SDS011;11142;49.930;8.606;2023-12-14T01:16:18;77.80;;;18.02;;
21955;SDS011;11142;49.930;8.606;2023-12-14T01:18:46;50.97;;;15.90;;
21955;SDS011;11142;49.930;8.606;2023-12-14T01:21:15;33.47;;;14.93;;
21955;SDS011;11142;49.930;8.606;2023-12-14T01:23:43;37.60;;;16.77;;
21955;SDS011;11142;49.930;8.606;2023-12-14T01:26:11;39.90;;;16.50;;
21955;SDS011;11142;49.930;8.606;2023-12-14T01:28:45;35.97;;;14.13;;
21955;SDS011;11142;49.930;8.606;2023-12-14T01:31:20;71.43;;;18.48;;
21955;SDS011;11142;49.930;8.606;2023-12-14T01:33:50;34.95;;;14.80;;
21955;SDS011;11142;49.930;8.606;2023-12-14T01:36:22;57.72;;;16.80;;
21955;SDS011;11142;49.930;8.606;2023-12-14T01:38:51;46.72;;;16.15;;
21955;SDS011;11142;49.930;8.606;2023-12-14T01:41:20;32.58;;;14.65;;
21955;SDS011;11142;49.930;8.606;2023-12-14T01:43:49;38.30;;;15.05;;
21955;SDS011;11142;49.930;8.606;2023-12-14T01:46:20;42.03;;;15.18;;
21955;SDS011;11142;49.930;8.606;2023-12-14T01:48:48;27.45;;;13.85;;
21955;SDS011;11142;49.930;8.606;2023-12-14T01:51:16;61.22;;;15.93;;
21955;SDS011;11142;49.930;8.606;2023-12-14T01:53:44;36.22;;;14.40;;
21955;SDS011;11142;49.930;8.606;2023-12-14T01:56:13;41.22;;;14.68;;
21955;SDS011;11142;49.930;8.606;2023-12-14T01:58:41;86.90;;;18.40;;
21955;SDS011;11142;49.930;8.606;2023-12-14T02:01:11;56.70;;;15.80;;
21955;SDS011;11142;49.930;8.606;2023-12-14T02:12:36;28.30;;;13.50;;
21955;SDS011;11142;49.930;8.606;2023-12-14T02:15:05;99.65;;;17.70;;
21955;SDS011;11142;49.930;8.606;2023-12-14T02:17:34;36.42;;;15.60;;
21955;SDS011;11142;49.930;8.606;2023-12-14T02:50:34;34.72;;;14.52;;
21955;SDS011;11142;49.930;8.606;2023-12-14T03:19:20;36.15;;;15.70;;
21955;SDS011;11142;49.930;8.606;2023-12-14T03:21:48;41.80;;;16.30;;
21955;SDS011;11142;49.930;8.606;2023-12-14T03:24:16;38.03;;;15.82;;
21955;SDS011;11142;49.930;8.606;2023-12-14T03:45:45;31.15;;;14.45;;
21955;SDS011;11142;49.930;8.606;2023-12-14T03:48:14;35.85;;;15.77;;
21955;SDS011;11142;49.930;8.606;2023-12-14T03:50:42;34.83;;;16.00;;
21955;SDS011;11142;49.930;8.606;2023-12-14T03:53:10;37.38;;;15.95;;
21955;SDS011;11142;49.930;8.606;2023-12-14T03:55:38;37.67;;;15.88;;
21955;SDS011;11142;49.930;8.606;2023-12-14T06:18:30;41.17;;;17.13;;
21955;SDS011;11142;49.930;8.606;2023-12-14T06:20:58;44.05;;;18.20;;
21955;SDS011;11142;49.930;8.606;2023-12-14T06:23:26;43.63;;;17.33;;
21955;SDS011;11142;49.930;8.606;2023-12-14T06:25:54;49.70;;;19.13;;
21955;SDS011;11142;49.930;8.606;2023-12-14T06:28:22;40.28;;;17.75;;
21955;SDS011;11142;49.930;8.606;2023-12-14T06:30:50;54.40;;;21.27;;
21955;SDS011;11142;49.930;8.606;2023-12-14T06:33:18;40.58;;;18.48;;
21955;SDS011;11142;49.930;8.606;2023-12-14T06:35:47;42.08;;;18.60;;
21955;SDS011;11142;49.930;8.606;2023-12-14T06:38:15;44.70;;;19.50;;
21955;SDS011;11142;49.930;8.606;2023-12-14T06:40:43;46.38;;;19.92;;
21955;SDS011;11142;49.930;8.606;2023-12-14T06:43:11;46.42;;;19.55;;
21955;SDS011;11142;49.930;8.606;2023-12-14T06:45:38;40.85;;;17.75;;
21955;SDS011;11142;49.930;8.606;2023-12-14T06:48:06;50.05;;;19.98;;
21955;SDS011;11142;49.930;8.606;2023-12-14T06:50:34;42.58;;;19.80;;
21955;SDS011;11142;49.930;8.606;2023-12-14T06:53:04;41.97;;;19.02;;
21955;SDS011;11142;49.930;8.606;2023-12-14T06:55:32;45.33;;;18.92;;
21955;SDS011;11142;49.930;8.606;2023-12-14T06:57:59;43.10;;;19.27;;
21955;SDS011;11142;49.930;8.606;2023-12-14T07:00:27;54.38;;;20.98;;
21955;SDS011;11142;49.930;8.606;2023-12-14T07:02:55;43.92;;;18.88;;
21955;SDS011;11142;49.930;8.606;2023-12-14T07:05:24;50.50;;;19.38;;
21955;SDS011;11142;49.930;8.606;2023-12-14T07:07:52;46.55;;;19.95;;
21955;SDS011;11142;49.930;8.606;2023-12-14T07:10:22;49.63;;;20.40;;
21955;SDS011;11142;49.930;8.606;2023-12-14T07:12:50;51.47;;;20.42;;
21955;SDS011;11142;49.930;8.606;2023-12-14T07:15:18;49.03;;;19.98;;
21955;SDS011;11142;49.930;8.606;2023-12-14T07:17:46;46.15;;;20.25;;
21955;SDS011;11142;49.930;8.606;2023-12-14T07:20:14;41.45;;;17.15;;
21955;SDS011;11142;49.930;8.606;2023-12-14T07:22:43;51.15;;;19.85;;
21955;SDS011;11142;49.930;8.606;2023-12-14T07:25:11;41.88;;;19.55;;
21955;SDS011;11142;49.930;8.606;2023-12-14T07:27:41;41.05;;;17.38;;
21955;SDS011;11142;49.930;8.606;2023-12-14T07:30:10;52.55;;;19.17;;
21955;SDS011;11142;49.930;8.606;2023-12-14T07:32:39;37.97;;;17.23;;
21955;SDS011;11142;49.930;8.606;2023-12-14T07:35:07;33.97;;;16.73;;
21955;SDS011;11142;49.930;8.606;2023-12-14T07:37:36;39.90;;;17.17;;
21955;SDS011;11142;49.930;8.606;2023-12-14T07:40:06;43.65;;;18.67;;
21955;SDS011;11142;49.930;8.606;2023-12-14T07:42:34;39.92;;;17.45;;
21955;SDS011;11142;49.930;8.606;2023-12-14T07:45:05;41.05;;;17.80;;
21955;SDS011;11142;49.930;8.606;2023-12-14T07:47:36;40.90;;;17.58;;
21955;SDS011;11142;49.930;8.606;2023-12-14T07:50:05;45.78;;;17.27;;
21955;SDS011;11142;49.930;8.606;2023-12-14T07:52:34;35.47;;;15.88;;
21955;SDS011;11142;49.930;8.606;2023-12-14T07:55:03;43.30;;;17.42;;
21955;SDS011;11142;49.930;8.606;2023-12-14T07:57:33;34.92;;;16.13;;
21955;SDS011;11142;49.930;8.606;2023-12-14T08:00:01;40.28;;;17.95;;
21955;SDS011;11142;49.930;8.606;2023-12-14T08:02:33;41.72;;;17.55;;
21955;SDS011;11142;49.930;8.606;2023-12-14T08:05:01;30.77;;;14.32;;
21955;SDS011;11142;49.930;8.606;2023-12-14T08:07:31;40.35;;;18.25;;
21955;SDS011;11142;49.930;8.606;2023-12-14T08:10:00;34.70;;;17.00;;
21955;SDS011;11142;49.930;8.606;2023-12-14T08:12:29;32.78;;;14.68;;
21955;SDS011;11142;49.930;8.606;2023-12-14T08:14:59;33.15;;;14.57;;
21955;SDS011;11142;49.930;8.606;2023-12-14T08:17:27;30.95;;;13.93;;
21955;SDS011;11142;49.930;8.606;2023-12-14T08:19:57;27.77;;;13.77;;
21955;SDS011;11142;49.930;8.606;2023-12-14T08:22:26;39.72;;;15.07;;
21955;SDS011;11142;49.930;8.606;2023-12-14T08:24:54;31.02;;;14.18;;
21955;SDS011;11142;49.930;8.606;2023-12-14T08:27:23;31.75;;;14.95;;
21955;SDS011;11142;49.930;8.606;2023-12-14T08:29:51;29.08;;;14.23;;
21955;SDS011;11142;49.930;8.606;2023-12-14T08:32:19;29.60;;;13.77;;
21955;SDS011;11142;49.930;8.606;2023-12-14T08:34:48;31.33;;;14.48;;
21955;SDS011;11142;49.930;8.606;2023-12-14T08:37:18;26.42;;;14.77;;
21955;SDS011;11142;49.930;8.606;2023-12-14T08:39:47;31.52;;;13.77;;
21955;SDS011;11142;49.930;8.606;2023-12-14T08:42:20;21.17;;;11.73;;
21955;SDS011;11142;49.930;8.606;2023-12-14T08:44:51;22.50;;;11.10;;
21955;SDS011;11142;49.930;8.606;2023-12-14T08:47:19;20.20;;;10.68;;
21955;SDS011;11142;49.930;8.606;2023-12-14T08:49:47;21.67;;;11.85;;
21955;SDS011;11142;49.930;8.606;2023-12-14T08:52:16;23.90;;;11.00;;
21955;SDS011;11142;49.930;8.606;2023-12-14T08:54:46;28.65;;;11.85;;
21955;SDS011;11142;49.930;8.606;2023-12-14T08:57:15;24.85;;;11.95;;
21955;SDS011;11142;49.930;8.606;2023-12-14T08:59:43;22.33;;;11.23;;
21955;SDS011;11142;49.930;8.606;2023-12-14T09:02:11;20.20;;;11.48;;
21955;SDS011;11142;49.930;8.606;2023-12-14T09:04:40;23.63;;;11.55;;
21955;SDS011;11142;49.930;8.606;2023-12-14T09:07:08;18.30;;;9.90;;
21955;SDS011;11142;49.930;8.606;2023-12-14T09:09:36;21.52;;;10.43;;
21955;SDS011;11142;49.930;8.606;2023-12-14T09:12:06;19.98;;;9.10;;
21955;SDS011;11142;49.930;8.606;2023-12-14T09:14:34;20.55;;;9.43;;
21955;SDS011;11142;49.930;8.606;2023-12-14T09:17:03;23.08;;;10.27;;
21955;SDS011;11142;49.930;8.606;2023-12-14T09:19:31;22.70;;;9.43;;
21955;SDS011;11142;49.930;8.606;2023-12-14T09:22:00;18.27;;;8.88;;
21955;SDS011;11142;49.930;8.606;2023-12-14T09:24:28;21.00;;;10.20;;
21955;SDS011;11142;49.930;8.606;2023-12-14T09:26:56;19.77;;;9.98;;
21955;SDS011;11142;49.930;8.606;2023-12-14T09:29:25;20.20;;;9.55;;
21955;SDS011;11142;49.930;8.606;2023-12-14T09:31:54;23.25;;;10.20;;
21955;SDS011;11142;49.930;8.606;2023-12-14T09:34:22;22.35;;;9.85;;
21955;SDS011;11142;49.930;8.606;2023-12-14T09:36:51;20.00;;;9.88;;
21955;SDS011;11142;49.930;8.606;2023-12-14T09:39:22;19.25;;;9.77;;
21955;SDS011;11142;49.930;8.606;2023-12-14T09:41:50;20.27;;;10.80;;
21955;SDS011;11142;49.930;8.606;2023-12-14T09:44:19;21.17;;;10.10;;
21955;SDS011;11142;49.930;8.606;2023-12-14T09:46:49;20.75;;;10.23;;
21955;SDS011;11142;49.930;8.606;2023-12-14T09:49:18;28.15;;;10.55;;
21955;SDS011;11142;49.930;8.606;2023-12-14T09:51:47;20.67;;;10.07;;
21955;SDS011;11142;49.930;8.606;2023-12-14T09:54:15;25.75;;;10.85;;
21955;SDS011;11142;49.930;8.606;2023-12-14T09:56:47;20.67;;;10.20;;
21955;SDS011;11142;49.930;8.606;2023-12-14T09:59:16;20.85;;;9.52;;
21955;SDS011;11142;49.930;8.606;2023-12-14T10:01:45;20.13;;;10.25;;
21955;SDS011;11142;49.930;8.606;2023-12-14T10:04:15;20.05;;;9.40;;
21955;SDS011;11142;49.930;8.606;2023-12-14T10:06:46;19.38;;;10.07;;
21955;SDS011;11142;49.930;8.606;2023-12-14T10:09:15;16.05;;;8.23;;
21955;SDS011;11142;49.930;8.606;2023-12-14T10:11:50;17.48;;;8.00;;
21955;SDS011;11142;49.930;8.606;2023-12-14T10:14:30;16.27;;;7.38;;
21955;SDS011;11142;49.930;8.606;2023-12-14T10:16:59;14.10;;;6.93;;
21955;SDS011;11142;49.930;8.606;2023-12-14T10:19:43;14.35;;;7.43;;
21955;SDS011;11142;49.930;8.606;2023-12-14T10:22:13;13.55;;;6.47;;
21955;SDS011;11142;49.930;8.606;2023-12-14T10:24:45;14.43;;;7.18;;
21955;SDS011;11142;49.930;8.606;2023-12-14T10:27:15;10.95;;;5.72;;
21955;SDS011;11142;49.930;8.606;2023-12-14T10:29:44;12.13;;;4.63;;
21955;SDS011;11142;49.930;8.606;2023-12-14T10:32:13;10.60;;;4.88;;
21955;SDS011;11142;49.930;8.606;2023-12-14T10:34:41;10.02;;;4.57;;
21955;SDS011;11142;49.930;8.606;2023-12-14T10:37:11;7.47;;;3.80;;
21955;SDS011;11142;49.930;8.606;2023-12-14T10:39:42;8.18;;;4.07;;
21955;SDS011;11142;49.930;8.606;2023-12-14T10:42:10;8.57;;;4.38;;
21955;SDS011;11142;49.930;8.606;2023-12-14T10:44:47;9.73;;;5.10;;
21955;SDS011;11142;49.930;8.606;2023-12-14T10:47:38;10.52;;;5.43;;
21955;SDS011;11142;49.930;8.606;2023-12-14T10:50:14;14.02;;;4.70;;
21955;SDS011;11142;49.930;8.606;2023-12-14T10:52:44;10.38;;;4.90;;
21955;SDS011;11142;49.930;8.606;2023-12-14T10:55:15;10.60;;;5.28;;
21955;SDS011;11142;49.930;8.606;2023-12-14T10:57:51;10.07;;;4.85;;
21955;SDS011;11142;49.930;8.606;2023-12-14T11:00:20;9.63;;;4.72;;
21955;SDS011;11142;49.930;8.606;2023-12-14T11:02:48;10.55;;;4.75;;
21955;SDS011;11142;49.930;8.606;2023-12-14T11:05:18;8.00;;;4.28;;
21955;SDS011;11142;49.930;8.606;2023-12-14T11:07:54;9.77;;;4.85;;
21955;SDS011;11142;49.930;8.606;2023-12-14T11:10:26;8.63;;;4.40;;
21955;SDS011;11142;49.930;8.606;2023-12-14T11:12:59;10.02;;;4.68;;
21955;SDS011;11142;49.930;8.606;2023-12-14T11:15:29;6.13;;;3.67;;
21955;SDS011;11142;49.930;8.606;2023-12-14T11:20:51;8.30;;;3.88;;
21955;SDS011;11142;49.930;8.606;2023-12-14T11:23:33;8.90;;;4.43;;
21955;SDS011;11142;49.930;8.606;2023-12-14T11:26:04;9.25;;;4.15;;
21955;SDS011;11142;49.930;8.606;2023-12-14T11:28:35;8.50;;;4.03;;
21955;SDS011;11142;49.930;8.606;2023-12-14T11:31:04;8.93;;;4.32;;
21955;SDS011;11142;49.930;8.606;2023-12-14T11:33:35;9.15;;;4.63;;
21955;SDS011;11142;49.930;8.606;2023-12-14T11:36:12;8.93;;;5.20;;
21955;SDS011;11142;49.930;8.606;2023-12-14T11:38:41;10.98;;;5.22;;
21955;SDS011;11142;49.930;8.606;2023-12-14T11:41:10;8.48;;;3.88;;
21955;SDS011;11142;49.930;8.606;2023-12-14T11:43:42;10.48;;;4.43;;
21955;SDS011;11142;49.930;8.606;2023-12-14T11:46:12;10.75;;;4.20;;
21955;SDS011;11142;49.930;8.606;2023-12-14T11:48:46;8.95;;;5.00;;
21955;SDS011;11142;49.930;8.606;2023-12-14T11:51:17;5.85;;;3.35;;
21955;SDS011;11142;49.930;8.606;2023-12-14T11:53:46;10.02;;;4.50;;
21955;SDS011;11142;49.930;8.606;2023-12-14T11:56:14;10.65;;;4.70;;
21955;SDS011;11142;49.930;8.606;2023-12-14T11:58:45;9.00;;;4.18;;
21955;SDS011;11142;49.930;8.606;2023-12-14T12:01:14;8.40;;;5.10;;
21955;SDS011;11142;49.930;8.606;2023-12-14T12:03:45;8.48;;;4.60;;
21955;SDS011;11142;49.930;8.606;2023-12-14T12:06:21;8.70;;;4.25;;
21955;SDS011;11142;49.930;8.606;2023-12-14T12:08:56;10.23;;;4.43;;
21955;SDS011;11142;49.930;8.606;2023-12-14T12:11:25;9.00;;;4.38;;
21955;SDS011;11142;49.930;8.606;2023-12-14T12:13:55;8.65;;;4.80;;
21955;SDS011;11142;49.930;8.606;2023-12-14T12:16:26;12.82;;;4.82;;
21955;SDS011;11142;49.930;8.606;2023-12-14T12:18:55;7.90;;;4.15;;
21955;SDS011;11142;49.930;8.606;2023-12-14T12:21:25;7.80;;;4.10;;
21955;SDS011;11142;49.930;8.606;2023-12-14T12:23:54;6.32;;;3.65;;
21955;SDS011;11142;49.930;8.606;2023-12-14T12:26:22;7.28;;;4.00;;
21955;SDS011;11142;49.930;8.606;2023-12-14T12:28:50;9.35;;;4.60;;
21955;SDS011;11142;49.930;8.606;2023-12-14T12:31:19;5.50;;;3.83;;
21955;SDS011;11142;49.930;8.606;2023-12-14T12:33:48;6.03;;;3.55;;
21955;SDS011;11142;49.930;8.606;2023-12-14T12:36:16;6.05;;;2.90;;
21955;SDS011;11142;49.930;8.606;2023-12-14T12:38:45;5.10;;;2.80;;
21955;SDS011;11142;49.930;8.606;2023-12-14T12:41:14;3.83;;;2.42;;
21955;SDS011;11142;49.930;8.606;2023-12-14T12:43:42;4.82;;;2.50;;
21955;SDS011;11142;49.930;8.606;2023-12-14T12:46:12;5.28;;;3.13;;
21955;SDS011;11142;49.930;8.606;2023-12-14T12:48:40;4.60;;;2.90;;
21955;SDS011;11142;49.930;8.606;2023-12-14T12:51:09;6.97;;;3.67;;
21955;SDS011;11142;49.930;8.606;2023-12-14T12:53:37;6.78;;;2.90;;
21955;SDS011;11142;49.930;8.606;2023-12-14T12:56:07;4.15;;;2.55;;
21955;SDS011;11142;49.930;8.606;2023-12-14T12:58:36;4.30;;;2.22;;
21955;SDS011;11142;49.930;8.606;2023-12-14T13:01:04;4.30;;;2.63;;
21955;SDS011;11142;49.930;8.606;2023-12-14T13:03:32;4.35;;;2.30;;
21955;SDS011;11142;49.930;8.606;2023-12-14T13:06:01;6.88;;;2.45;;
21955;SDS011;11142;49.930;8.606;2023-12-14T13:08:29;4.72;;;2.95;;
21955;SDS011;11142;49.930;8.606;2023-12-14T13:10:58;3.42;;;2.35;;
21955;SDS011;11142;49.930;8.606;2023-12-14T13:13:28;5.55;;;2.85;;
21955;SDS011;11142;49.930;8.606;2023-12-14T13:15:58;5.93;;;2.78;;
21955;SDS011;11142;49.930;8.606;2023-12-14T13:18:26;5.80;;;3.20;;
21955;SDS011;11142;49.930;8.606;2023-12-14T13:20:54;5.03;;;3.28;;
21955;SDS011;11142;49.930;8.606;2023-12-14T13:23:23;4.10;;;2.60;;
21955;SDS011;11142;49.930;8.606;2023-12-14T13:25:51;4.88;;;2.75;;
21955;SDS011;11142;49.930;8.606;2023-12-14T13:28:20;4.72;;;3.00;;
21955;SDS011;11142;49.930;8.606;2023-12-14T13:30:51;4.35;;;2.63;;
21955;SDS011;11142;49.930;8.606;2023-12-14T13:33:22;6.60;;;3.30;;
21955;SDS011;11142;49.930;8.606;2023-12-14T13:35:54;5.22;;;2.90;;
21955;SDS011;11142;49.930;8.606;2023-12-14T13:38:26;5.82;;;2.90;;
21955;SDS011;11142;49.930;8.606;2023-12-14T13:40:55;8.00;;;3.00;;
21955;SDS011;11142;49.930;8.606;2023-12-14T13:43:24;5.03;;;2.95;;
21955;SDS011;11142;49.930;8.606;2023-12-14T13:45:54;5.78;;;3.17;;
21955;SDS011;11142;49.930;8.606;2023-12-14T13:48:43;5.60;;;3.28;;
21955;SDS011;11142;49.930;8.606;2023-12-14T13:51:11;5.50;;;3.28;;
21955;SDS011;11142;49.930;8.606;2023-12-14T13:53:39;6.10;;;3.20;;
21955;SDS011;11142;49.930;8.606;2023-12-14T13:56:11;8.82;;;3.88;;
21955;SDS011;11142;49.930;8.606;2023-12-14T13:58:40;6.90;;;4.53;;
21955;SDS011;11142;49.930;8.606;2023-12-14T14:01:09;7.88;;;5.10;;
21955;SDS011;11142;49.930;8.606;2023-12-14T14:03:37;9.55;;;4.22;;
21955;SDS011;11142;49.930;8.606;2023-12-14T14:06:06;10.10;;;5.50;;
21955;SDS011;11142;49.930;8.606;2023-12-14T14:08:34;8.95;;;5.22;;
21955;SDS011;11142;49.930;8.606;2023-12-14T14:11:05;9.50;;;4.60;;
21955;SDS011;11142;49.930;8.606;2023-12-14T14:13:36;8.15;;;5.07;;
21955;SDS011;11142;49.930;8.606;2023-12-14T14:16:06;6.75;;;3.75;;
21955;SDS011;11142;49.930;8.606;2023-12-14T14:18:36;9.30;;;4.70;;
21955;SDS011;11142;49.930;8.606;2023-12-14T14:21:05;12.80;;;5.70;;
21955;SDS011;11142;49.930;8.606;2023-12-14T14:23:34;12.25;;;5.50;;
21955;SDS011;11142;49.930;8.606;2023-12-14T14:26:03;11.20;;;5.30;;
21955;SDS011;11142;49.930;8.606;2023-12-14T14:28:33;11.10;;;5.55;;
21955;SDS011;11142;49.930;8.606;2023-12-14T14:31:01;9.23;;;5.50;;
21955;SDS011;11142;49.930;8.606;2023-12-14T14:33:29;12.55;;;6.55;;
21955;SDS011;11142;49.930;8.606;2023-12-14T14:35:59;11.68;;;6.32;;
21955;SDS011;11142;49.930;8.606;2023-12-14T14:40:59;10.70;;;4.75;;
21955;SDS011;11142;49.930;8.606;2023-12-14T14:43:27;9.57;;;5.15;;
21955;SDS011;11142;49.930;8.606;2023-12-14T14:45:56;11.70;;;5.35;;
21955;SDS011;11142;49.930;8.606;2023-12-14T14:48:25;11.18;;;5.80;;
21955;SDS011;11142;49.930;8.606;2023-12-14T14:50:53;10.68;;;5.50;;
21955;SDS011;11142;49.930;8.606;2023-12-14T14:53:23;8.48;;;5.18;;
21955;SDS011;11142;49.930;8.606;2023-12-14T14:55:51;10.68;;;5.38;;
21955;SDS011;11142;49.930;8.606;2023-12-14T14:58:22;11.43;;;5.43;;
21955;SDS011;11142;49.930;8.606;2023-12-14T15:00:51;9.80;;;5.07;;
21955;SDS011;11142;49.930;8.606;2023-12-14T15:03:20;12.63;;;4.90;;
21955;SDS011;11142;49.930;8.606;2023-12-14T15:05:48;11.45;;;5.65;;
21955;SDS011;11142;49.930;8.606;2023-12-14T15:08:17;10.23;;;4.90;;
21955;SDS011;11142;49.930;8.606;2023-12-14T15:10:46;10.95;;;5.10;;
21955;SDS011;11142;49.930;8.606;2023-12-14T15:13:15;10.90;;;5.25;;
21955;SDS011;11142;49.930;8.606;2023-12-14T15:15:44;9.77;;;4.93;;
21955;SDS011;11142;49.930;8.606;2023-12-14T15:18:14;12.90;;;5.43;;
21955;SDS011;11142;49.930;8.606;2023-12-14T15:20:43;10.30;;;5.07;;
21955;SDS011;11142;49.930;8.606;2023-12-14T15:23:12;9.75;;;5.20;;
21955;SDS011;11142;49.930;8.606;2023-12-14T15:25:41;10.32;;;5.50;;
21955;SDS011;11142;49.930;8.606;2023-12-14T15:28:10;17.13;;;7.45;;
21955;SDS011;11142;49.930;8.606;2023-12-14T15:30:39;17.58;;;6.55;;
21955;SDS011;11142;49.930;8.606;2023-12-14T15:33:08;11.93;;;5.72;;
21955;SDS011;11142;49.930;8.606;2023-12-14T15:35:36;13.57;;;7.00;;
21955;SDS011;11142;49.930;8.606;2023-12-14T15:38:06;12.70;;;6.60;;
21955;SDS011;11142;49.930;8.606;2023-12-14T15:40:36;24.33;;;11.52;;
21955;SDS011;11142;49.930;8.606;2023-12-14T15:43:04;21.75;;;11.52;;
21955;SDS011;11142;49.930;8.606;2023-12-14T15:45:34;19.02;;;9.23;;
21955;SDS011;11142;49.930;8.606;2023-12-14T15:48:02;22.27;;;10.75;;
21955;SDS011;11142;49.930;8.606;2023-12-14T15:50:30;12.98;;;6.65;;
21955;SDS011;11142;49.930;8.606;2023-12-14T15:52:59;8.77;;;4.53;;
21955;SDS011;11142;49.930;8.606;2023-12-14T15:55:27;8.05;;;4.10;;
21955;SDS011;11142;49.930;8.606;2023-12-14T15:57:56;5.30;;;2.78;;
21955;SDS011;11142;49.930;8.606;2023-12-14T16:00:24;1.80;;;1.13;;
21955;SDS011;11142;49.930;8.606;2023-12-14T16:02:53;4.32;;;2.80;;
21955;SDS011;11142;49.930;8.606;2023-12-14T16:05:21;4.35;;;2.38;;
21955;SDS011;11142;49.930;8.606;2023-12-14T16:07:49;3.95;;;2.33;;
21955;SDS011;11142;49.930;8.606;2023-12-14T16:10:17;4.72;;;2.40;;
21955;SDS011;11142;49.930;8.606;2023-12-14T16:12:45;4.28;;;2.38;;
21955;SDS011;11142;49.930;8.606;2023-12-14T16:15:14;2.53;;;2.03;;
21955;SDS011;11142;49.930;8.606;2023-12-14T16:17:42;3.45;;;2.00;;
21955;SDS011;11142;49.930;8.606;2023-12-14T16:20:12;4.53;;;2.50;;
21955;SDS011;11142;49.930;8.606;2023-12-14T16:22:40;4.45;;;2.10;;
21955;SDS011;11142;49.930;8.606;2023-12-14T16:25:09;6.22;;;2.42;;
21955;SDS011;11142;49.930;8.606;2023-12-14T16:27:37;5.45;;;2.53;;
21955;SDS011;11142;49.930;8.606;2023-12-14T16:30:05;6.25;;;2.60;;
21955;SDS011;11142;49.930;8.606;2023-12-14T16:32:34;4.53;;;2.58;;
21955;SDS011;11142;49.930;8.606;2023-12-14T16:35:03;4.88;;;2.65;;
21955;SDS011;11142;49.930;8.606;2023-12-14T16:37:34;10.85;;;3.70;;
21955;SDS011;11142;49.930;8.606;2023-12-14T16:40:03;5.45;;;3.03;;
21955;SDS011;11142;49.930;8.606;2023-12-14T16:42:32;5.13;;;2.67;;
21955;SDS011;11142;49.930;8.606;2023-12-14T16:45:00;4.88;;;2.47;;
21955;SDS011;11142;49.930;8.606;2023-12-14T16:47:29;6.38;;;3.20;;
21955;SDS011;11142;49.930;8.606;2023-12-14T16:49:57;5.60;;;2.83;;
21955;SDS011;11142;49.930;8.606;2023-12-14T16:52:26;5.55;;;3.17;;
21955;SDS011;11142;49.930;8.606;2023-12-14T16:54:56;8.32;;;3.83;;
21955;SDS011;11142;49.930;8.606;2023-12-14T16:57:25;5.55;;;2.72;;
21955;SDS011;11142;49.930;8.606;2023-12-14T16:59:53;6.43;;;3.38;;
21955;SDS011;11142;49.930;8.606;2023-12-14T17:02:22;8.10;;;3.78;;
21955;SDS011;11142;49.930;8.606;2023-12-14T17:04:51;7.03;;;3.97;;
21955;SDS011;11142;49.930;8.606;2023-12-14T17:07:20;5.60;;;3.05;;
21955;SDS011;11142;49.930;8.606;2023-12-14T17:09:48;6.85;;;3.65;;
21955;SDS011;11142;49.930;8.606;2023-12-14T17:12:23;7.95;;;3.25;;
21955;SDS011;11142;49.930;8.606;2023-12-14T17:14:52;5.90;;;3.45;;
21955;SDS011;11142;49.930;8.606;2023-12-14T17:17:21;8.15;;;3.65;;
21955;SDS011;11142;49.930;8.606;2023-12-14T17:19:51;8.45;;;3.63;;
21955;SDS011;11142;49.930;8.606;2023-12-14T17:22:20;16.38;;;5.15;;
21955;SDS011;11142;49.930;8.606;2023-12-14T17:24:48;12.48;;;6.00;;
21955;SDS011;11142;49.930;8.606;2023-12-14T17:27:16;8.07;;;3.78;;
21955;SDS011;11142;49.930;8.606;2023-12-14T17:29:46;6.22;;;3.33;;
21955;SDS011;11142;49.930;8.606;2023-12-14T17:32:14;7.35;;;3.90;;
21955;SDS011;11142;49.930;8.606;2023-12-14T17:34:42;6.07;;;3.50;;
21955;SDS011;11142;49.930;8.606;2023-12-14T17:37:09;5.43;;;3.15;;
21955;SDS011;11142;49.930;8.606;2023-12-14T17:39:38;9.50;;;4.88;;
21955;SDS011;11142;49.930;8.606;2023-12-14T17:42:06;7.80;;;4.20;;
21955;SDS011;11142;49.930;8.606;2023-12-14T17:44:46;8.25;;;4.07;;
21955;SDS011;11142;49.930;8.606;2023-12-14T17:47:15;8.45;;;3.95;;
21955;SDS011;11142;49.930;8.606;2023-12-14T17:49:43;7.60;;;3.70;;
21955;SDS011;11142;49.930;8.606;2023-12-14T17:52:11;9.88;;;4.32;;
21955;SDS011;11142;49.930;8.606;2023-12-14T17:54:40;12.48;;;4.18;;
21955;SDS011;11142;49.930;8.606;2023-12-14T17:57:07;8.20;;;4.00;;
21955;SDS011;11142;49.930;8.606;2023-12-14T17:59:35;9.27;;;4.05;;
21955;SDS011;11142;49.930;8.606;2023-12-14T18:02:05;6.82;;;3.58;;
21955;SDS011;11142;49.930;8.606;2023-12-14T18:04:33;9.18;;;4.43;;
21955;SDS011;11142;49.930;8.606;2023-12-14T18:07:01;7.40;;;3.83;;
21955;SDS011;11142;49.930;8.606;2023-12-14T18:09:30;8.43;;;3.95;;
21955;SDS011;11142;49.930;8.606;2023-12-14T18:11:59;8.05;;;3.80;;
21955;SDS011;11142;49.930;8.606;2023-12-14T18:14:27;9.27;;;4.90;;
21955;SDS011;11142;49.930;8.606;2023-12-14T18:16:55;7.95;;;4.38;;
21955;SDS011;11142;49.930;8.606;2023-12-14T18:19:24;9.65;;;4.25;;
21955;SDS011;11142;49.930;8.606;2023-12-14T18:21:55;9.05;;;3.92;;
21955;SDS011;11142;49.930;8.606;2023-12-14T18:24:23;8.98;;;4.97;;
21955;SDS011;11142;49.930;8.606;2023-12-14T18:26:52;10.18;;;4.53;;
21955;SDS011;11142;49.930;8.606;2023-12-14T18:29:19;8.70;;;4.47;;
21955;SDS011;11142;49.930;8.606;2023-12-14T18:31:47;8.80;;;4.68;;
21955;SDS011;11142;49.930;8.606;2023-12-14T18:34:15;8.98;;;4.20;;
21955;SDS011;11142;49.930;8.606;2023-12-14T18:36:45;8.35;;;3.50;;